Finest — WCW8374 — position and weather

sailwx.info

Track history (hours):
 
Tides and Currents Weather Stations Pressure Air Temp Water Temp Dewpoint Dewpoint Depression Visibility Wind Speed Wind Dir Waves Ship Positions

Finest

Owner: NEW YORK FAST FERRY SERVICES INC, MAMARONECK, NY. More information available from US FCC via Universal Licensing System and Coast Guard Vessel Documentation Center.

Last reported at 2014-Oct-21 13:33 UTC. Time now 2014-Oct-21 13:47 UTC.
Position N 40°46' W 074°01'.

Length 38 m.

Type: High speed craft. MMSI: 366990590.

Date/timePositionNaut miles runAvg speedWind from/ knotsBaromVisibWave heightAir tempDewpointWater temp
2014-Oct-21 13:33N 40°46' W 074°01'7 6.7
2014-Oct-21 12:34N 40°40' W 074°02'4 3.9
2014-Oct-21 11:33N 40°36' W 074°03'10 9.9
2014-Oct-21 10:33N 40°26' W 074°05'10 0.8
2014-Oct-20 22:33N 40°36' W 074°03'7 6.6
2014-Oct-20 21:25N 40°28' W 074°04'1315.0
2014-Oct-20 20:34N 40°41' W 074°01'5 5.2
2014-Oct-20 19:33N 40°46' W 074°01'0 0.0
2014-Oct-20 18:33N 40°46' W 074°01'0 0.0
2014-Oct-20 17:33N 40°46' W 074°01'0 0.0
2014-Oct-20 16:33N 40°46' W 074°01'0 0.0
2014-Oct-20 15:33N 40°46' W 074°01'0 0.0
2014-Oct-20 14:33N 40°46' W 074°01'0 0.0
2014-Oct-20 13:33N 40°46' W 074°01'7 6.8
2014-Oct-20 12:34N 40°40' W 074°02'3 3.5
2014-Oct-20 11:33N 40°36' W 074°03'  
2014-Oct-17 22:31N 40°36' W 074°03'5 5.2
2014-Oct-17 21:31N 40°30' W 074°04'1111.3
2014-Oct-17 20:34N 40°41' W 074°01'5 5.3
2014-Oct-17 19:34N 40°46' W 074°01'0 0.2
2014-Oct-17 18:33N 40°46' W 074°00'0 0.0
2014-Oct-16 19:33N 40°46' W 074°01'0 0.0
2014-Oct-16 18:33N 40°46' W 074°01'0 0.0
2014-Oct-16 17:33N 40°46' W 074°01'0 0.0
2014-Oct-16 16:33N 40°46' W 074°01'0 0.0
2014-Oct-16 15:33N 40°46' W 074°01'0 0.0
2014-Oct-16 14:33N 40°46' W 074°01'0 0.0
2014-Oct-16 13:33N 40°46' W 074°01'8 7.9
2014-Oct-16 12:33N 40°38' W 074°02'4 3.4
2014-Oct-16 11:22N 40°42' W 074°01'1 0.1
2014-Oct-15 22:17N 40°42' W 074°00'1114.3
2014-Oct-15 21:31N 40°32' W 074°04'1010.9
2014-Oct-15 20:34N 40°42' W 074°01'4 4.4
2014-Oct-15 19:33N 40°46' W 074°01'0 0.0
2014-Oct-15 18:33N 40°46' W 074°01'0 0.0
2014-Oct-15 17:33N 40°46' W 074°01'0 0.0
2014-Oct-15 16:33N 40°46' W 074°01'0 0.0
2014-Oct-15 15:33N 40°46' W 074°01'0 0.0
2014-Oct-15 14:33N 40°46' W 074°01'0 0.0
2014-Oct-15 13:33N 40°46' W 074°01'7 6.9
2014-Oct-15 12:34N 40°40' W 074°02'3 3.2
2014-Oct-15 11:33N 40°36' W 074°03'1010.4
2014-Oct-15 10:34N 40°26' W 074°05'0 0.2
2014-Oct-15 09:31N 40°26' W 074°05'10 0.9
2014-Oct-14 22:33N 40°36' W 074°03'4 3.8
2014-Oct-14 21:33N 40°32' W 074°04'10 9.6
2014-Oct-14 20:32N 40°42' W 074°01'4 4.5
2014-Oct-14 19:33N 40°46' W 074°01'0 0.0
2014-Oct-14 18:33N 40°46' W 074°01'0 0.0
2014-Oct-14 17:33N 40°46' W 074°01'0 0.0
2014-Oct-14 16:33N 40°46' W 074°01'0 0.0
2014-Oct-14 15:33N 40°46' W 074°01'0 0.0
2014-Oct-14 14:33N 40°46' W 074°01'0 0.0
2014-Oct-14 13:33N 40°46' W 074°01'8 7.7
2014-Oct-14 12:33N 40°39' W 074°02'4 3.2
2014-Oct-14 11:23N 40°42' W 074°01'1619.3
2014-Oct-14 10:33N 40°26' W 074°05'17 1.3
2014-Oct-13 22:18N 40°42' W 074°00'1 0.4
2014-Oct-13 20:19N 40°42' W 074°01'4 5.5
2014-Oct-13 19:33N 40°46' W 074°01'0 0.0
2014-Oct-13 18:32N 40°46' W 074°01'0 0.0
2014-Oct-13 17:33N 40°46' W 074°01'0 0.0
2014-Oct-13 16:30N 40°46' W 074°01'0 0.0
2014-Oct-13 15:33N 40°46' W 074°01'0 0.0
2014-Oct-13 14:33N 40°46' W 074°01'0 0.0
2014-Oct-13 13:33N 40°46' W 074°01'6 6.2
2014-Oct-13 12:33N 40°40' W 074°02'4 4.2
2014-Oct-13 11:33N 40°36' W 074°03'1010.1
2014-Oct-13 10:33N 40°26' W 074°05'0 0.1
2014-Oct-13 09:28N 40°26' W 074°05'  
Track history (hours):
 
Tides and Currents Weather Stations Pressure Air Temp Water Temp Dewpoint Dewpoint Depression Visibility Wind Speed Wind Dir Waves Ship Positions

Finest

Owner: NEW YORK FAST FERRY SERVICES INC, MAMARONECK, NY. More information available from US FCC via Universal Licensing System and Coast Guard Vessel Documentation Center.

Last reported at 2014-Oct-21 13:33 UTC. Time now 2014-Oct-21 13:47 UTC.
Position N 40°46' W 074°01'.

Length 38 m.

Type: High speed craft. MMSI: 366990590.

Date/timePositionNaut miles runAvg speedWind from/ knotsBaromVisibWave heightAir tempDewpointWater temp
2014-Oct-21 13:33N 40°46' W 074°01'7 6.7
2014-Oct-21 12:34N 40°40' W 074°02'4 3.9
2014-Oct-21 11:33N 40°36' W 074°03'10 9.9
2014-Oct-21 10:33N 40°26' W 074°05'10 0.8
2014-Oct-20 22:33N 40°36' W 074°03'7 6.6
2014-Oct-20 21:25N 40°28' W 074°04'1315.0
2014-Oct-20 20:34N 40°41' W 074°01'5 5.2
2014-Oct-20 19:33N 40°46' W 074°01'0 0.0
2014-Oct-20 18:33N 40°46' W 074°01'0 0.0
2014-Oct-20 17:33N 40°46' W 074°01'0 0.0
2014-Oct-20 16:33N 40°46' W 074°01'0 0.0
2014-Oct-20 15:33N 40°46' W 074°01'0 0.0
2014-Oct-20 14:33N 40°46' W 074°01'0 0.0
2014-Oct-20 13:33N 40°46' W 074°01'7 6.8
2014-Oct-20 12:34N 40°40' W 074°02'3 3.5
2014-Oct-20 11:33N 40°36' W 074°03'  
2014-Oct-17 22:31N 40°36' W 074°03'5 5.2
2014-Oct-17 21:31N 40°30' W 074°04'1111.3
2014-Oct-17 20:34N 40°41' W 074°01'5 5.3
2014-Oct-17 19:34N 40°46' W 074°01'0 0.2
2014-Oct-17 18:33N 40°46' W 074°00'0 0.0
2014-Oct-16 19:33N 40°46' W 074°01'0 0.0
2014-Oct-16 18:33N 40°46' W 074°01'0 0.0
2014-Oct-16 17:33N 40°46' W 074°01'0 0.0
2014-Oct-16 16:33N 40°46' W 074°01'0 0.0
2014-Oct-16 15:33N 40°46' W 074°01'0 0.0
2014-Oct-16 14:33N 40°46' W 074°01'0 0.0
2014-Oct-16 13:33N 40°46' W 074°01'8 7.9
2014-Oct-16 12:33N 40°38' W 074°02'4 3.4
2014-Oct-16 11:22N 40°42' W 074°01'1 0.1
2014-Oct-15 22:17N 40°42' W 074°00'1114.3
2014-Oct-15 21:31N 40°32' W 074°04'1010.9
2014-Oct-15 20:34N 40°42' W 074°01'4 4.4
2014-Oct-15 19:33N 40°46' W 074°01'0 0.0
2014-Oct-15 18:33N 40°46' W 074°01'0 0.0
2014-Oct-15 17:33N 40°46' W 074°01'0 0.0
2014-Oct-15 16:33N 40°46' W 074°01'0 0.0
2014-Oct-15 15:33N 40°46' W 074°01'0 0.0
2014-Oct-15 14:33N 40°46' W 074°01'0 0.0
2014-Oct-15 13:33N 40°46' W 074°01'7 6.9
2014-Oct-15 12:34N 40°40' W 074°02'3 3.2
2014-Oct-15 11:33N 40°36' W 074°03'1010.4
2014-Oct-15 10:34N 40°26' W 074°05'0 0.2
2014-Oct-15 09:31N 40°26' W 074°05'10 0.9
2014-Oct-14 22:33N 40°36' W 074°03'4 3.8
2014-Oct-14 21:33N 40°32' W 074°04'10 9.6
2014-Oct-14 20:32N 40°42' W 074°01'4 4.5
2014-Oct-14 19:33N 40°46' W 074°01'0 0.0
2014-Oct-14 18:33N 40°46' W 074°01'0 0.0
2014-Oct-14 17:33N 40°46' W 074°01'0 0.0
2014-Oct-14 16:33N 40°46' W 074°01'0 0.0
2014-Oct-14 15:33N 40°46' W 074°01'0 0.0
2014-Oct-14 14:33N 40°46' W 074°01'0 0.0
2014-Oct-14 13:33N 40°46' W 074°01'8 7.7
2014-Oct-14 12:33N 40°39' W 074°02'4 3.2
2014-Oct-14 11:23N 40°42' W 074°01'1619.3
2014-Oct-14 10:33N 40°26' W 074°05'17 1.3
2014-Oct-13 22:18N 40°42' W 074°00'1 0.4
2014-Oct-13 20:19N 40°42' W 074°01'4 5.5
2014-Oct-13 19:33N 40°46' W 074°01'0 0.0
2014-Oct-13 18:32N 40°46' W 074°01'0 0.0
2014-Oct-13 17:33N 40°46' W 074°01'0 0.0
2014-Oct-13 16:30N 40°46' W 074°01'0 0.0
2014-Oct-13 15:33N 40°46' W 074°01'0 0.0
2014-Oct-13 14:33N 40°46' W 074°01'0 0.0
2014-Oct-13 13:33N 40°46' W 074°01'6 6.2
2014-Oct-13 12:33N 40°40' W 074°02'4 4.2
2014-Oct-13 11:33N 40°36' W 074°03'1010.1
2014-Oct-13 10:33N 40°26' W 074°05'0 0.1
2014-Oct-13 09:28N 40°26' W 074°05'  

Dump ship's entire track history